createdAt,value
2023-05-13T00:02:02.478Z,99.90
2023-05-13T00:04:30.278Z,99.90
2023-05-13T00:06:57.968Z,99.90
2023-05-13T00:09:25.688Z,99.90
2023-05-13T00:11:53.361Z,99.90
2023-05-13T00:14:21.873Z,99.90
2023-05-13T00:16:51.203Z,99.90
2023-05-13T00:19:19.018Z,99.90
2023-05-13T00:21:47.224Z,99.90
2023-05-13T00:24:14.905Z,99.90
2023-05-13T00:26:42.627Z,99.90
2023-05-13T00:29:10.320Z,99.90
2023-05-13T00:31:38.116Z,99.90
2023-05-13T00:34:07.171Z,99.90
2023-05-13T00:36:34.931Z,99.90
2023-05-13T00:39:02.677Z,99.90
2023-05-13T00:41:30.631Z,99.90
2023-05-13T00:43:58.461Z,99.90
2023-05-13T00:46:26.844Z,99.90
2023-05-13T00:48:54.649Z,99.90
2023-05-13T00:51:23.703Z,99.90
2023-05-13T00:53:53.081Z,99.90
2023-05-13T00:56:21.881Z,99.90
2023-05-13T00:58:49.938Z,99.90
2023-05-13T01:01:26.072Z,99.90
2023-05-13T01:04:02.979Z,99.90
2023-05-13T01:06:41.391Z,99.90
2023-05-13T01:09:18.155Z,99.90
2023-05-13T01:11:47.403Z,99.90
2023-05-13T01:14:20.708Z,99.90
2023-05-13T01:16:54.098Z,99.90
2023-05-13T01:19:33.120Z,99.90
2023-05-13T01:22:02.164Z,99.90
2023-05-13T01:24:29.926Z,99.90
2023-05-13T01:26:57.776Z,99.90
2023-05-13T01:29:25.737Z,99.90
2023-05-13T01:31:54.736Z,99.90
2023-05-13T01:34:24.565Z,99.90
2023-05-13T01:36:52.646Z,99.90
2023-05-13T01:39:22.061Z,99.90
2023-05-13T01:41:49.932Z,99.90
2023-05-13T01:44:17.697Z,99.90
2023-05-13T01:46:45.565Z,99.90
2023-05-13T01:49:13.390Z,99.90
2023-05-13T01:51:41.429Z,99.90
2023-05-13T01:54:09.235Z,99.90
2023-05-13T01:56:38.654Z,99.90
2023-05-13T01:59:06.439Z,99.90
2023-05-13T02:01:34.234Z,99.90
2023-05-13T02:04:01.992Z,99.90
2023-05-13T02:06:29.752Z,99.90
2023-05-13T02:08:57.445Z,99.90
2023-05-13T02:11:25.163Z,99.90
2023-05-13T02:13:54.305Z,99.90
2023-05-13T02:16:22.687Z,99.90
2023-05-13T02:18:50.472Z,99.90
2023-05-13T02:21:18.236Z,99.90
2023-05-13T02:23:45.954Z,99.90
2023-05-13T02:26:13.718Z,99.90
2023-05-13T02:28:41.433Z,99.90
2023-05-13T02:31:10.484Z,99.90
2023-05-13T02:33:38.192Z,99.90
2023-05-13T02:36:06.433Z,99.90
2023-05-13T02:38:34.295Z,99.90
2023-05-13T02:41:02.252Z,99.90
2023-05-13T02:43:29.985Z,99.90
2023-05-13T02:45:57.759Z,99.90
2023-05-13T02:48:26.799Z,99.90
2023-05-13T02:50:54.515Z,99.90
2023-05-13T02:53:22.301Z,99.90
2023-05-13T02:55:50.196Z,99.90
2023-05-13T02:58:18.426Z,99.90
2023-05-13T03:00:46.204Z,99.90
2023-05-13T03:03:14.047Z,99.90
2023-05-13T03:05:43.186Z,99.90
2023-05-13T03:08:10.960Z,99.90
2023-05-13T03:10:38.670Z,99.90
2023-05-13T03:13:06.388Z,99.90
2023-05-13T03:15:34.125Z,99.90
2023-05-13T03:18:01.877Z,99.90
2023-05-13T03:20:29.740Z,99.90
2023-05-13T03:22:58.960Z,99.90
2023-05-13T03:25:26.774Z,99.90
2023-05-13T03:27:55.492Z,99.90
2023-05-13T03:30:23.472Z,99.90
2023-05-13T03:32:51.379Z,99.90
2023-05-13T03:35:19.207Z,99.90
2023-05-13T03:37:47.091Z,99.90
2023-05-13T03:40:16.446Z,99.90
2023-05-13T03:42:45.185Z,99.90
2023-05-13T03:45:13.005Z,99.90
2023-05-13T03:47:40.970Z,99.90
2023-05-13T03:50:10.231Z,99.90
2023-05-13T03:52:37.926Z,99.90
2023-05-13T03:55:06.451Z,99.90
2023-05-13T03:57:35.571Z,99.90
2023-05-13T04:00:03.469Z,99.90
2023-05-13T04:02:31.277Z,99.90
2023-05-13T04:04:59.034Z,99.90
2023-05-13T04:07:26.785Z,99.90
2023-05-13T04:09:54.556Z,99.90
2023-05-13T04:12:22.320Z,99.90
2023-05-13T04:14:51.380Z,99.90
2023-05-13T04:17:19.159Z,99.90
2023-05-13T04:19:46.881Z,99.90
2023-05-13T04:22:14.588Z,99.90
2023-05-13T04:24:42.320Z,99.90
2023-05-13T04:27:10.039Z,99.90
2023-05-13T04:29:37.750Z,99.90
2023-05-13T04:32:07.348Z,99.90
2023-05-13T04:34:35.126Z,99.90
2023-05-13T04:37:04.127Z,99.90
2023-05-13T04:39:31.845Z,99.90
2023-05-13T04:41:59.571Z,99.90
2023-05-13T04:44:27.266Z,99.90
2023-05-13T04:46:55.010Z,99.90
2023-05-13T04:49:24.491Z,99.90
2023-05-13T04:51:52.818Z,99.90
2023-05-13T04:54:21.262Z,99.90
2023-05-13T04:56:49.267Z,99.90
2023-05-13T04:59:19.033Z,99.90
2023-05-13T05:01:46.846Z,99.90
2023-05-13T05:04:17.952Z,99.90
2023-05-13T05:06:47.067Z,99.90
2023-05-13T05:09:14.834Z,99.90
2023-05-13T05:11:42.523Z,99.90
2023-05-13T05:14:10.390Z,99.90
2023-05-13T05:16:38.163Z,99.90
2023-05-13T05:19:06.103Z,99.90
2023-05-13T05:21:33.865Z,99.90
2023-05-13T05:24:02.935Z,99.90
2023-05-13T05:26:30.668Z,99.90
2023-05-13T05:28:58.453Z,99.90
2023-05-13T05:31:27.501Z,99.90
2023-05-13T05:33:59.006Z,99.90
2023-05-13T05:36:26.803Z,99.90
2023-05-13T05:38:54.615Z,99.90
2023-05-13T05:41:23.919Z,99.90
2023-05-13T05:43:51.731Z,99.90
2023-05-13T05:46:19.539Z,99.90
2023-05-13T05:48:47.257Z,99.90
2023-05-13T05:51:14.994Z,99.90
2023-05-13T05:53:42.725Z,99.90
2023-05-13T05:56:10.451Z,99.90
2023-05-13T05:58:39.562Z,99.90
2023-05-13T06:01:07.690Z,99.90
2023-05-13T06:03:35.513Z,99.90
2023-05-13T06:06:03.256Z,99.90
2023-05-13T06:08:30.997Z,99.90
2023-05-13T06:10:59.057Z,99.90
2023-05-13T06:13:27.103Z,99.90
2023-05-13T06:15:56.283Z,99.90
2023-05-13T06:18:24.133Z,99.90
2023-05-13T06:20:51.858Z,99.90
2023-05-13T06:23:19.738Z,99.90
2023-05-13T06:25:47.858Z,99.90
2023-05-13T06:28:15.619Z,99.90
2023-05-13T06:30:44.764Z,99.90
2023-05-13T06:33:14.978Z,99.90
2023-05-13T06:35:43.028Z,99.90
2023-05-13T06:38:11.072Z,99.90
2023-05-13T06:40:38.821Z,99.90
2023-05-13T06:43:06.717Z,99.90
2023-05-13T06:45:34.475Z,99.90
2023-05-13T06:48:02.248Z,99.90
2023-05-13T06:50:31.377Z,99.90
2023-05-13T06:52:59.106Z,99.90
2023-05-13T06:55:27.169Z,99.90
2023-05-13T06:57:54.871Z,99.90
2023-05-13T07:00:23.262Z,99.90
2023-05-13T07:02:51.138Z,99.90
2023-05-13T07:05:18.872Z,99.90
2023-05-13T07:07:47.928Z,99.90
2023-05-13T07:10:15.677Z,99.90
2023-05-13T07:12:43.380Z,99.90
2023-05-13T07:15:11.786Z,99.90
2023-05-13T07:17:39.701Z,99.90
2023-05-13T07:20:09.647Z,99.90
2023-05-13T07:22:37.367Z,99.90
2023-05-13T07:25:07.323Z,99.90
2023-05-13T07:27:35.060Z,99.90
2023-05-13T07:30:02.872Z,99.90
2023-05-13T07:32:31.249Z,99.90
2023-05-13T07:34:59.075Z,99.90
2023-05-13T07:37:26.911Z,99.60
2023-05-13T07:39:54.609Z,99.00
2023-05-13T07:42:23.720Z,95.50
2023-05-13T07:44:53.926Z,98.10
2023-05-13T07:47:21.878Z,97.00
2023-05-13T07:49:50.517Z,97.20
2023-05-13T07:52:18.443Z,96.20
2023-05-13T07:54:46.151Z,96.40
2023-05-13T07:57:14.033Z,96.80
2023-05-13T07:59:44.752Z,96.60
2023-05-13T08:02:12.877Z,96.10
2023-05-13T08:04:40.766Z,95.00
2023-05-13T08:07:09.331Z,95.10
2023-05-13T08:09:37.787Z,95.60
2023-05-13T08:12:06.404Z,94.90
2023-05-13T08:14:34.587Z,94.70
2023-05-13T08:17:06.282Z,93.80
2023-05-13T08:19:34.103Z,94.30
2023-05-13T08:22:01.970Z,93.00
2023-05-13T08:24:29.915Z,93.40
2023-05-13T08:26:57.678Z,94.50
2023-05-13T08:29:25.532Z,94.60
2023-05-13T08:31:54.615Z,94.40
2023-05-13T08:34:23.829Z,95.60
2023-05-13T08:36:51.586Z,95.50
2023-05-13T08:39:19.429Z,95.40
2023-05-13T08:41:50.541Z,97.30
2023-05-13T08:44:19.858Z,95.70
2023-05-13T08:46:56.672Z,95.10
2023-05-13T08:49:25.843Z,95.40
2023-05-13T08:51:53.562Z,94.30
2023-05-13T08:54:23.979Z,94.20
2023-05-13T08:56:52.397Z,93.70
2023-05-13T08:59:20.104Z,94.80
2023-05-13T09:01:50.580Z,93.70
2023-05-13T09:04:22.894Z,94.50
2023-05-13T09:06:52.005Z,94.50
2023-05-13T09:09:23.651Z,93.10
2023-05-13T09:11:51.697Z,92.70
2023-05-13T09:14:20.512Z,92.10
2023-05-13T09:16:48.696Z,92.30
2023-05-13T09:19:16.737Z,92.90
2023-05-13T09:21:45.228Z,93.20
2023-05-13T09:24:18.930Z,92.20
2023-05-13T09:26:47.288Z,93.70
2023-05-13T09:29:33.292Z,92.40
2023-05-13T09:32:02.884Z,94.00
2023-05-13T09:34:32.268Z,93.20
2023-05-13T09:37:02.791Z,91.20
2023-05-13T09:39:34.296Z,94.10
2023-05-13T09:42:04.800Z,90.60
2023-05-13T09:44:33.983Z,90.50
2023-05-13T09:47:02.282Z,88.40
2023-05-13T09:49:32.411Z,85.90
2023-05-13T09:52:00.155Z,85.20
2023-05-13T09:54:34.757Z,83.60
2023-05-13T09:57:04.530Z,83.30
2023-05-13T09:59:33.328Z,83.00
2023-05-13T10:02:02.621Z,80.70
2023-05-13T10:04:30.524Z,79.80
2023-05-13T10:06:59.221Z,83.20
2023-05-13T10:09:29.441Z,83.90
2023-05-13T10:11:58.140Z,80.30
2023-05-13T10:14:28.035Z,80.00
2023-05-13T10:16:57.122Z,81.50
2023-05-13T10:19:26.105Z,82.20
2023-05-13T10:21:54.366Z,81.80
2023-05-13T10:24:22.877Z,75.40
2023-05-13T10:26:53.274Z,75.20
2023-05-13T10:29:23.250Z,73.70
2023-05-13T10:31:52.793Z,75.20
2023-05-13T10:34:22.162Z,75.50
2023-05-13T10:37:08.129Z,78.30
2023-05-13T10:40:03.992Z,76.50
2023-05-13T10:42:42.973Z,72.40
2023-05-13T10:45:11.216Z,73.50
2023-05-13T10:47:40.358Z,69.90
2023-05-13T10:50:22.899Z,73.20
2023-05-13T10:52:51.188Z,67.50
2023-05-13T10:55:20.908Z,66.00
2023-05-13T10:58:12.331Z,69.80
2023-05-13T11:00:41.357Z,66.00
2023-05-13T11:03:15.454Z,66.60
2023-05-13T11:05:47.041Z,66.20
2023-05-13T11:08:33.973Z,65.20
2023-05-13T11:11:01.764Z,65.90
2023-05-13T11:13:37.807Z,69.20
2023-05-13T11:16:08.069Z,72.10
2023-05-13T11:18:37.434Z,65.80
2023-05-13T11:21:07.300Z,69.50
2023-05-13T11:23:51.542Z,67.20
2023-05-13T11:26:21.318Z,64.50
2023-05-13T11:29:00.799Z,62.80
2023-05-13T11:31:30.224Z,65.90
2023-05-13T11:34:12.863Z,66.10
2023-05-13T11:36:41.882Z,63.30
2023-05-13T11:39:12.310Z,66.40
2023-05-13T11:41:42.024Z,64.00
2023-05-13T11:44:10.377Z,66.60
2023-05-13T11:46:38.110Z,61.10
2023-05-13T11:49:07.254Z,61.00
2023-05-13T11:51:36.600Z,59.40
2023-05-13T11:54:04.909Z,59.20
2023-05-13T11:56:32.671Z,59.80
2023-05-13T11:59:16.256Z,61.10
2023-05-13T12:01:44.068Z,58.70
2023-05-13T12:04:11.809Z,58.80
2023-05-13T12:06:46.714Z,60.00
2023-05-13T12:09:14.732Z,59.20
2023-05-13T12:11:42.553Z,60.10
2023-05-13T12:14:10.698Z,59.10
2023-05-13T12:16:38.679Z,58.90
2023-05-13T12:19:07.355Z,52.50
2023-05-13T12:21:35.317Z,52.10
2023-05-13T12:24:18.307Z,55.50
2023-05-13T12:26:46.351Z,51.00
2023-05-13T12:29:14.535Z,51.10
2023-05-13T12:31:43.720Z,51.70
2023-05-13T12:34:11.599Z,52.50
2023-05-13T12:36:40.486Z,56.20
2023-05-13T12:39:10.831Z,53.40
2023-05-13T12:41:40.271Z,52.50
2023-05-13T12:44:10.689Z,53.40
2023-05-13T12:46:39.726Z,54.70
2023-05-13T12:49:11.974Z,51.60
2023-05-13T12:51:40.029Z,50.20
2023-05-13T12:54:09.133Z,47.90
2023-05-13T12:56:36.846Z,51.40
2023-05-13T12:59:04.631Z,47.30
2023-05-13T13:01:32.709Z,51.70
2023-05-13T13:04:00.887Z,50.80
2023-05-13T13:06:29.240Z,51.10
2023-05-13T13:08:56.970Z,53.10
2023-05-13T13:11:26.048Z,50.80
2023-05-13T13:13:53.822Z,48.80
2023-05-13T13:16:21.789Z,49.20
2023-05-13T13:18:50.940Z,49.70
2023-05-13T13:21:19.670Z,51.20
2023-05-13T13:23:47.400Z,50.60
2023-05-13T13:26:15.130Z,49.40
2023-05-13T13:28:44.169Z,53.10
2023-05-13T13:31:12.589Z,49.50
2023-05-13T13:33:40.354Z,50.70
2023-05-13T13:36:08.566Z,49.60
2023-05-13T13:38:36.383Z,49.90
2023-05-13T13:41:04.100Z,49.80
2023-05-13T13:43:31.879Z,47.20
2023-05-13T13:46:01.094Z,48.10
2023-05-13T13:48:28.851Z,49.00
2023-05-13T13:50:58.440Z,51.50
2023-05-13T13:53:26.204Z,52.70
2023-05-13T13:55:54.169Z,52.30
2023-05-13T13:58:22.236Z,50.70
2023-05-13T14:00:49.980Z,50.10
2023-05-13T14:03:19.371Z,49.60
2023-05-13T14:05:47.099Z,52.20
2023-05-13T14:08:14.818Z,51.40
2023-05-13T14:10:42.642Z,52.20
2023-05-13T14:13:10.328Z,51.20
2023-05-13T14:15:39.058Z,51.00
2023-05-13T14:18:07.714Z,53.50
2023-05-13T14:20:38.320Z,51.40
2023-05-13T14:23:06.094Z,48.80
2023-05-13T14:25:33.832Z,50.00
2023-05-13T14:28:01.542Z,51.30
2023-05-13T14:30:29.261Z,51.80
2023-05-13T14:32:57.081Z,51.50
2023-05-13T14:35:24.812Z,53.20
2023-05-13T14:37:53.990Z,51.50
2023-05-13T14:40:22.035Z,49.70
2023-05-13T14:42:50.219Z,49.10
2023-05-13T14:45:18.799Z,50.40
2023-05-13T14:47:46.768Z,49.90
2023-05-13T14:50:15.068Z,50.60
2023-05-13T14:52:42.879Z,50.80
2023-05-13T14:55:12.364Z,51.40
2023-05-13T14:57:40.280Z,50.10
2023-05-13T15:00:09.770Z,51.60
2023-05-13T15:02:37.762Z,50.60
2023-05-13T15:05:07.025Z,50.30
2023-05-13T15:07:34.847Z,49.60
2023-05-13T15:10:02.758Z,50.30
2023-05-13T15:12:31.875Z,53.20
2023-05-13T15:14:59.911Z,51.80
2023-05-13T15:17:27.997Z,52.60
2023-05-13T15:19:55.764Z,50.80
2023-05-13T15:22:23.511Z,50.50
2023-05-13T15:24:51.231Z,51.40
2023-05-13T15:27:19.463Z,53.30
2023-05-13T15:29:48.554Z,51.20
2023-05-13T15:32:16.362Z,53.30
2023-05-13T15:34:44.910Z,53.50
2023-05-13T15:37:12.680Z,52.30
2023-05-13T15:39:40.494Z,52.90
2023-05-13T15:42:08.547Z,52.00
2023-05-13T15:44:36.306Z,52.70
2023-05-13T15:47:06.216Z,54.30
2023-05-13T15:49:34.070Z,53.00
2023-05-13T15:52:02.057Z,53.30
2023-05-13T15:54:30.128Z,53.90
2023-05-13T15:56:59.005Z,51.70
2023-05-13T15:59:26.856Z,52.10
2023-05-13T16:01:54.657Z,51.50
2023-05-13T16:04:23.827Z,51.20
2023-05-13T16:06:51.700Z,52.80
2023-05-13T16:09:19.423Z,53.00
2023-05-13T16:11:47.317Z,51.60
2023-05-13T16:14:15.116Z,53.10
2023-05-13T16:16:42.925Z,50.90
2023-05-13T16:19:10.863Z,53.00
2023-05-13T16:21:42.268Z,54.70
2023-05-13T16:24:09.985Z,53.20
2023-05-13T16:26:38.029Z,53.40
2023-05-13T16:29:05.844Z,53.20
2023-05-13T16:31:33.754Z,53.60
2023-05-13T16:34:01.472Z,53.30
2023-05-13T16:36:29.253Z,55.50
2023-05-13T16:38:58.359Z,54.60
2023-05-13T16:41:26.649Z,57.10
2023-05-13T16:43:54.412Z,55.10
2023-05-13T16:46:22.151Z,55.20
2023-05-13T16:48:49.873Z,55.20
2023-05-13T16:51:17.671Z,55.60
2023-05-13T16:53:45.479Z,56.60
2023-05-13T16:56:14.508Z,55.40
2023-05-13T16:58:42.206Z,54.20
2023-05-13T17:01:09.947Z,55.80
2023-05-13T17:03:37.745Z,55.70
2023-05-13T17:06:07.194Z,55.10
2023-05-13T17:08:34.903Z,55.40
2023-05-13T17:11:02.620Z,57.90
2023-05-13T17:13:31.802Z,58.70
2023-05-13T17:15:59.624Z,58.70
2023-05-13T17:18:27.335Z,58.00
2023-05-13T17:20:55.170Z,58.10
2023-05-13T17:23:22.922Z,57.90
2023-05-13T17:25:50.950Z,58.00
2023-05-13T17:28:18.782Z,59.80
2023-05-13T17:30:47.981Z,59.30
2023-05-13T17:33:15.773Z,60.20
2023-05-13T17:35:43.633Z,62.10
2023-05-13T17:38:11.353Z,61.40
2023-05-13T17:40:39.105Z,61.20
2023-05-13T17:43:06.810Z,60.10
2023-05-13T17:45:35.635Z,59.60
2023-05-13T17:48:05.439Z,59.70
2023-05-13T17:50:33.257Z,60.10
2023-05-13T17:53:01.469Z,59.40
2023-05-13T17:55:29.255Z,59.80
2023-05-13T17:57:57.069Z,60.20
2023-05-13T18:00:25.465Z,61.00
2023-05-13T18:02:53.553Z,62.40
2023-05-13T18:05:23.100Z,62.10
2023-05-13T18:07:51.713Z,60.30
2023-05-13T18:10:19.829Z,62.50
2023-05-13T18:12:47.658Z,63.10
2023-05-13T18:15:15.390Z,64.10
2023-05-13T18:17:43.141Z,64.60
2023-05-13T18:20:11.704Z,65.00
2023-05-13T18:22:40.884Z,64.50
2023-05-13T18:25:10.058Z,65.40
2023-05-13T18:27:37.842Z,63.90
2023-05-13T18:30:06.337Z,65.80
2023-05-13T18:32:34.164Z,65.90
2023-05-13T18:35:01.982Z,67.30
2023-05-13T18:37:29.695Z,67.90
2023-05-13T18:39:59.120Z,68.30
2023-05-13T18:42:26.813Z,68.70
2023-05-13T18:44:54.786Z,68.20
2023-05-13T18:47:22.671Z,69.40
2023-05-13T18:49:50.611Z,70.50
2023-05-13T18:52:18.321Z,71.50
2023-05-13T18:54:46.031Z,71.40
2023-05-13T18:57:15.889Z,73.40
2023-05-13T18:59:43.629Z,74.70
2023-05-13T19:02:11.465Z,75.10
2023-05-13T19:04:39.503Z,75.60
2023-05-13T19:07:07.222Z,76.40
2023-05-13T19:09:35.947Z,77.00
2023-05-13T19:12:03.737Z,77.40
2023-05-13T19:14:32.798Z,78.30
2023-05-13T19:17:01.164Z,78.70
2023-05-13T19:19:29.113Z,79.60
2023-05-13T19:21:56.893Z,79.80
2023-05-13T19:24:24.632Z,80.40
2023-05-13T19:26:52.401Z,80.80
2023-05-13T19:29:20.219Z,81.50
2023-05-13T19:31:49.272Z,82.00
2023-05-13T19:34:17.021Z,82.40
2023-05-13T19:36:45.991Z,82.50
2023-05-13T19:39:13.732Z,83.10
2023-05-13T19:41:41.576Z,83.30
2023-05-13T19:44:09.295Z,83.80
2023-05-13T19:46:37.116Z,84.00
2023-05-13T19:49:06.176Z,84.50
2023-05-13T19:51:33.926Z,85.00
2023-05-13T19:54:01.707Z,85.70
2023-05-13T19:56:29.683Z,86.50
2023-05-13T19:58:57.400Z,86.90
2023-05-13T20:01:25.283Z,86.90
2023-05-13T20:03:53.178Z,87.10
2023-05-13T20:06:22.292Z,87.50
2023-05-13T20:08:50.005Z,87.80
2023-05-13T20:11:17.901Z,87.90
2023-05-13T20:13:45.926Z,88.10
2023-05-13T20:16:13.934Z,88.50
2023-05-13T20:18:42.874Z,88.90
2023-05-13T20:21:10.828Z,88.90
2023-05-13T20:23:41.505Z,88.80
2023-05-13T20:26:09.308Z,89.10
2023-05-13T20:28:39.255Z,88.90
2023-05-13T20:31:07.028Z,89.40
2023-05-13T20:33:34.728Z,89.50
2023-05-13T20:36:02.419Z,89.90
2023-05-13T20:38:30.212Z,90.10
2023-05-13T20:40:59.784Z,90.40
2023-05-13T20:43:28.678Z,90.80
2023-05-13T20:45:56.450Z,90.90
2023-05-13T20:48:24.197Z,90.90
2023-05-13T20:50:59.486Z,91.00
2023-05-13T20:53:27.238Z,91.10
2023-05-13T20:55:54.947Z,91.30
2023-05-13T20:58:23.986Z,91.50
2023-05-13T21:00:51.680Z,91.60
2023-05-13T21:03:19.499Z,91.80
2023-05-13T21:05:47.305Z,92.00
2023-05-13T21:08:15.112Z,92.40
2023-05-13T21:10:42.810Z,92.40
2023-05-13T21:13:10.709Z,92.30
2023-05-13T21:15:39.904Z,92.50
2023-05-13T21:18:07.714Z,92.60
2023-05-13T21:20:35.570Z,92.80
2023-05-13T21:23:03.384Z,92.80
2023-05-13T21:25:31.134Z,92.90
2023-05-13T21:27:58.832Z,92.90
2023-05-13T21:30:26.557Z,93.00
2023-05-13T21:32:55.924Z,93.30
2023-05-13T21:35:23.680Z,93.60
2023-05-13T21:37:52.361Z,93.60
2023-05-13T21:40:23.893Z,93.70
2023-05-13T21:42:51.806Z,93.30
2023-05-13T21:45:20.550Z,93.20
2023-05-13T21:47:48.275Z,93.50
2023-05-13T21:50:17.663Z,93.90
2023-05-13T21:52:45.391Z,94.30
2023-05-13T21:55:13.153Z,94.40
2023-05-13T21:57:40.856Z,94.60
2023-05-13T22:00:10.618Z,94.40
2023-05-13T22:02:38.657Z,94.50
2023-05-13T22:05:07.355Z,94.00
2023-05-13T22:07:36.462Z,94.00
2023-05-13T22:10:04.698Z,94.70
2023-05-13T22:12:32.406Z,95.20
2023-05-13T22:15:00.175Z,95.60
2023-05-13T22:17:28.063Z,96.10
2023-05-13T22:19:55.973Z,96.60
2023-05-13T22:22:23.661Z,96.80
2023-05-13T22:24:52.699Z,96.60
2023-05-13T22:27:21.269Z,96.40
2023-05-13T22:29:49.028Z,96.30
2023-05-13T22:32:16.786Z,96.50
2023-05-13T22:34:44.542Z,96.20
2023-05-13T22:37:12.341Z,96.20
2023-05-13T22:39:40.072Z,96.40
2023-05-13T22:42:11.691Z,96.40
2023-05-13T22:44:46.903Z,96.60
2023-05-13T22:47:14.632Z,96.70
2023-05-13T22:49:42.359Z,96.90
2023-05-13T22:52:10.129Z,96.80
2023-05-13T22:54:37.825Z,97.00
2023-05-13T22:57:05.899Z,96.80
2023-05-13T22:59:36.074Z,97.10
2023-05-13T23:02:04.066Z,97.60
2023-05-13T23:04:31.955Z,97.30
2023-05-13T23:06:59.792Z,97.00
2023-05-13T23:09:27.499Z,97.50
2023-05-13T23:11:55.210Z,97.80
2023-05-13T23:14:23.093Z,97.30
2023-05-13T23:16:52.264Z,97.20
2023-05-13T23:19:20.055Z,97.30
2023-05-13T23:21:47.831Z,97.80
2023-05-13T23:24:15.549Z,97.70
2023-05-13T23:26:44.768Z,97.10
2023-05-13T23:29:14.209Z,97.00
2023-05-13T23:31:42.090Z,97.00
2023-05-13T23:34:11.130Z,96.80
2023-05-13T23:36:38.841Z,97.10
2023-05-13T23:39:06.784Z,97.20
2023-05-13T23:41:35.185Z,97.30
2023-05-13T23:44:03.012Z,97.60
2023-05-13T23:46:30.730Z,98.00
2023-05-13T23:48:58.516Z,98.40
2023-05-13T23:51:27.564Z,98.20
2023-05-13T23:53:55.467Z,98.40
2023-05-13T23:56:23.219Z,98.40
2023-05-13T23:58:50.960Z,98.70
